createdAt,value
2023-01-06T11:57:48.975Z,66.60
2023-01-06T12:00:21.341Z,66.50
2023-01-06T12:03:09.190Z,66.30
2023-01-06T12:05:47.818Z,66.40
2023-01-06T12:08:22.313Z,66.50
2023-01-06T12:11:01.052Z,66.80
2023-01-06T12:13:33.450Z,66.80
2023-01-06T12:16:05.807Z,66.30
2023-01-06T12:18:37.577Z,66.20
2023-01-06T12:21:07.224Z,65.70
2023-01-06T12:23:42.060Z,64.90
2023-01-06T12:26:16.760Z,65.10
2023-01-06T12:28:48.195Z,65.30
2023-01-06T12:31:29.588Z,64.80
2023-01-06T12:34:05.225Z,64.60
2023-01-06T12:36:40.527Z,64.90
2023-01-06T12:39:29.855Z,65.00
2023-01-06T12:42:05.317Z,64.90
2023-01-06T12:44:54.430Z,64.40
2023-01-06T12:47:29.494Z,64.00
2023-01-06T12:50:04.332Z,64.30
2023-01-06T12:52:50.112Z,64.20
2023-01-06T12:55:23.249Z,64.20
2023-01-06T21:44:13.110Z,64.30
2023-01-06T21:46:42.441Z,64.40
2023-01-06T21:49:11.748Z,63.80
2023-01-06T21:51:42.120Z,63.50
2023-01-06T21:54:11.585Z,63.40
2023-01-06T21:56:40.931Z,63.50
2023-01-06T21:59:10.349Z,63.50
2023-01-06T22:01:39.974Z,62.90
2023-01-06T22:04:09.396Z,63.80
2023-01-06T22:06:40.185Z,63.10
2023-01-06T22:09:11.314Z,63.00
2023-01-06T22:11:41.881Z,62.80
2023-01-06T22:14:12.077Z,61.90
2023-01-06T22:16:41.754Z,60.80
2023-01-06T22:19:12.406Z,60.70
2023-01-06T22:21:43.733Z,60.10
2023-01-06T22:24:14.480Z,60.20
2023-01-06T22:26:43.877Z,59.60
2023-01-06T22:29:13.224Z,59.00
2023-01-06T22:31:42.577Z,57.70
2023-01-06T22:34:12.069Z,58.40
2023-01-06T22:36:41.392Z,57.20
2023-01-06T22:39:11.908Z,56.60
2023-01-06T22:41:41.290Z,55.90
2023-01-06T23:08:36.521Z,54.50
2023-01-06T23:11:11.484Z,54.10
2023-01-06T23:13:48.389Z,53.60
2023-01-06T23:16:24.151Z,53.20
2023-01-06T23:18:53.790Z,52.90
2023-01-06T23:21:27.019Z,53.50
2023-01-06T23:23:57.938Z,53.70
2023-01-06T23:26:29.649Z,53.90
2023-01-06T23:29:00.016Z,53.60
2023-01-06T23:31:30.913Z,54.20
2023-01-06T23:34:03.080Z,53.00
2023-01-06T23:36:32.911Z,53.70
2023-01-06T23:39:05.672Z,53.60
2023-01-06T23:41:36.616Z,52.80
2023-01-06T23:44:06.297Z,53.70
2023-01-06T23:46:40.550Z,53.30
2023-01-06T23:49:10.651Z,52.00
2023-01-06T23:51:42.942Z,51.40
2023-01-06T23:54:15.673Z,52.10
2023-01-06T23:56:49.320Z,51.90
2023-01-06T23:59:36.474Z,51.00
